createdAt,value
2022-09-10T00:00:06.995Z,16.67
2022-09-10T00:00:18.327Z,14.65
2022-09-10T00:00:29.602Z,12.50
2022-09-10T00:00:41.206Z,13.15
2022-09-10T00:00:56.007Z,13.43
2022-09-10T00:01:07.255Z,12.13
2022-09-10T00:01:19.426Z,11.68
2022-09-10T00:01:31.766Z,9.07
2022-09-10T00:01:45.527Z,8.93
2022-09-10T00:01:57.012Z,9.00
2022-09-10T00:02:08.342Z,7.90
2022-09-10T00:02:19.604Z,8.20
2022-09-10T00:02:30.885Z,9.55
2022-09-10T00:02:42.187Z,11.60
2022-09-10T00:02:53.496Z,9.13
2022-09-10T00:03:05.128Z,9.02
2022-09-10T00:03:16.454Z,9.43
2022-09-10T00:03:27.728Z,9.18
2022-09-10T00:03:38.991Z,7.90
2022-09-10T00:03:50.328Z,6.97
2022-09-10T00:04:02.622Z,6.63
2022-09-10T00:04:15.163Z,7.20
2022-09-10T00:04:27.136Z,7.20
2022-09-10T00:04:38.369Z,8.30
2022-09-10T00:04:49.603Z,7.43
2022-09-10T00:05:00.944Z,10.57
2022-09-10T00:05:12.462Z,12.18
2022-09-10T00:05:23.727Z,13.45
2022-09-10T00:05:42.048Z,13.18
2022-09-10T00:05:53.366Z,11.90
2022-09-10T00:06:05.084Z,10.60
2022-09-10T00:06:17.300Z,10.25
2022-09-10T00:06:28.884Z,9.75
2022-09-10T00:06:40.762Z,8.10
2022-09-10T00:06:52.037Z,7.75
2022-09-10T00:07:03.304Z,9.77
2022-09-10T00:07:14.548Z,12.77
2022-09-10T00:07:25.894Z,12.10
2022-09-10T00:07:37.389Z,10.25
2022-09-10T00:07:48.643Z,8.93
2022-09-10T00:07:59.885Z,8.00
2022-09-10T00:08:11.233Z,8.85
2022-09-10T00:08:22.545Z,8.57
2022-09-10T00:08:33.844Z,10.88
2022-09-10T00:08:45.252Z,9.27
2022-09-10T00:08:57.670Z,10.05
2022-09-10T00:09:09.460Z,9.45
2022-09-10T00:09:20.766Z,12.30
2022-09-10T00:09:32.011Z,12.85
2022-09-10T00:09:43.288Z,11.48
2022-09-10T00:09:54.506Z,10.38
2022-09-10T00:10:05.872Z,11.65
2022-09-10T00:10:17.187Z,11.00
2022-09-10T00:10:28.468Z,9.15
2022-09-10T00:10:40.499Z,8.57
2022-09-10T00:10:51.743Z,10.23
2022-09-10T00:11:05.010Z,10.50
2022-09-10T00:11:16.260Z,10.02
2022-09-10T00:11:28.571Z,9.88
2022-09-10T00:11:40.612Z,11.98
2022-09-10T00:11:51.875Z,14.50
2022-09-10T00:12:03.337Z,12.95
2022-09-10T00:12:14.906Z,13.40
2022-09-10T00:12:26.161Z,10.82
2022-09-10T00:12:37.367Z,11.57
2022-09-10T00:12:48.635Z,8.98
2022-09-10T00:12:59.938Z,8.90
2022-09-10T00:13:11.674Z,9.88
2022-09-10T00:13:22.972Z,10.07
2022-09-10T00:13:35.657Z,9.85
2022-09-10T00:13:46.903Z,8.77
2022-09-10T00:14:02.011Z,11.40
2022-09-10T00:14:15.097Z,11.57
2022-09-10T00:14:26.426Z,8.52
2022-09-10T00:14:37.725Z,8.05
2022-09-10T00:14:48.993Z,10.80
2022-09-10T00:15:00.274Z,10.18
2022-09-10T00:15:11.852Z,9.82
2022-09-10T00:15:23.079Z,9.85
2022-09-10T00:15:44.855Z,8.52
2022-09-10T00:15:56.160Z,7.88
2022-09-10T00:16:09.997Z,8.82
2022-09-10T00:16:21.321Z,8.13
2022-09-10T00:16:32.692Z,7.30
2022-09-10T00:16:44.443Z,8.18
2022-09-10T00:16:55.716Z,9.27
2022-09-10T00:17:06.951Z,7.68
2022-09-10T00:17:18.172Z,10.35
2022-09-10T00:17:29.451Z,12.05
2022-09-10T00:17:40.737Z,12.57
2022-09-10T00:17:51.991Z,10.40
2022-09-10T00:18:03.244Z,8.57
2022-09-10T00:18:15.749Z,6.72
2022-09-10T00:18:27.012Z,6.72
2022-09-10T00:18:38.439Z,7.22
2022-09-10T00:18:49.689Z,8.82
2022-09-10T00:19:01.480Z,8.27
2022-09-10T00:19:13.070Z,9.35
2022-09-10T00:19:24.283Z,8.27
2022-09-10T00:19:35.533Z,7.63
2022-09-10T00:19:46.793Z,6.60
2022-09-10T00:19:58.406Z,6.63
2022-09-10T00:20:10.173Z,7.82
2022-09-10T00:20:21.425Z,8.50
2022-09-10T00:20:32.680Z,8.10
2022-09-10T00:20:44.583Z,6.68
2022-09-10T00:20:56.301Z,6.75
2022-09-10T00:21:09.096Z,6.35
2022-09-10T00:21:20.454Z,8.02
2022-09-10T00:21:31.688Z,10.52
2022-09-10T00:21:43.264Z,10.55
2022-09-10T00:21:54.478Z,8.77
2022-09-10T00:22:05.763Z,7.32
2022-09-10T00:22:17.055Z,8.38
2022-09-10T00:22:28.362Z,9.45
2022-09-10T00:22:39.625Z,11.05
2022-09-10T00:22:50.869Z,10.10
2022-09-10T00:23:02.113Z,9.98
2022-09-10T00:23:13.859Z,8.27
2022-09-10T00:23:26.525Z,7.72
2022-09-10T00:23:37.917Z,6.50
2022-09-10T00:23:49.943Z,6.00
2022-09-10T00:24:01.630Z,7.10
2022-09-10T00:24:12.954Z,8.90
2022-09-10T00:24:24.239Z,8.35
2022-09-10T00:24:35.528Z,7.93
2022-09-10T00:24:46.777Z,8.75
2022-09-10T00:24:58.031Z,8.02
2022-09-10T00:25:09.310Z,7.93
2022-09-10T00:25:20.560Z,7.47
2022-09-10T00:25:31.772Z,7.70
2022-09-10T00:25:43.035Z,8.15
2022-09-10T00:25:55.775Z,9.07
2022-09-10T00:26:19.144Z,9.43
2022-09-10T00:26:34.640Z,9.70
2022-09-10T00:26:45.926Z,8.80
2022-09-10T00:26:57.159Z,8.38
2022-09-10T00:27:08.435Z,9.63
2022-09-10T00:27:19.676Z,9.52
2022-09-10T00:27:30.945Z,8.07
2022-09-10T00:27:42.226Z,7.90
2022-09-10T00:27:53.505Z,8.07
2022-09-10T00:28:04.971Z,7.80
2022-09-10T00:28:16.312Z,7.07
2022-09-10T00:28:30.452Z,8.48
2022-09-10T00:28:42.301Z,9.57
2022-09-10T00:28:54.606Z,9.85
2022-09-10T00:29:07.115Z,8.35
2022-09-10T00:29:20.744Z,6.13
2022-09-10T00:29:31.991Z,8.95
2022-09-10T00:29:43.215Z,9.80
2022-09-10T00:29:54.549Z,9.55
2022-09-10T00:30:06.194Z,8.32
2022-09-10T00:30:17.551Z,11.90
2022-09-10T00:30:28.787Z,11.15
2022-09-10T00:30:44.510Z,9.15
2022-09-10T00:30:55.777Z,8.85
2022-09-10T00:31:07.205Z,13.45
2022-09-10T00:31:19.538Z,12.82
2022-09-10T00:31:31.832Z,9.70
2022-09-10T00:31:43.407Z,9.90
2022-09-10T00:31:54.682Z,8.07
2022-09-10T00:32:06.065Z,7.45
2022-09-10T00:32:17.439Z,6.75
2022-09-10T00:32:28.814Z,8.38
2022-09-10T00:32:40.108Z,9.00
2022-09-10T00:32:51.330Z,9.57
2022-09-10T00:33:02.542Z,8.40
2022-09-10T00:33:14.538Z,9.10
2022-09-10T00:33:25.846Z,9.43
2022-09-10T00:33:37.292Z,11.25
2022-09-10T00:33:49.159Z,9.65
2022-09-10T00:34:01.477Z,8.82
2022-09-10T00:34:13.170Z,8.73
2022-09-10T00:34:24.436Z,9.35
2022-09-10T00:34:35.722Z,7.28
2022-09-10T00:34:49.837Z,7.90
2022-09-10T00:35:01.098Z,9.18
2022-09-10T00:35:12.378Z,8.13
2022-09-10T00:35:23.850Z,6.68
2022-09-10T00:35:35.534Z,6.10
2022-09-10T00:35:46.801Z,6.80
2022-09-10T00:35:58.030Z,7.88
2022-09-10T00:36:16.596Z,8.15
2022-09-10T00:36:29.902Z,8.13
2022-09-10T00:36:42.023Z,9.95
2022-09-10T00:36:53.303Z,9.73
2022-09-10T00:37:04.527Z,8.60
2022-09-10T00:37:15.850Z,6.32
2022-09-10T00:37:27.250Z,6.80
2022-09-10T00:37:38.525Z,8.35
2022-09-10T00:37:50.013Z,10.32
2022-09-10T00:38:01.287Z,9.05
2022-09-10T00:38:13.277Z,7.63
2022-09-10T00:38:24.538Z,5.78
2022-09-10T00:38:35.857Z,6.40
2022-09-10T00:38:47.630Z,7.75
2022-09-10T00:39:00.281Z,9.10
2022-09-10T00:39:12.971Z,8.30
2022-09-10T00:39:25.209Z,6.97
2022-09-10T00:39:36.446Z,7.30
2022-09-10T00:39:47.796Z,7.55
2022-09-10T00:39:59.142Z,7.82
2022-09-10T00:40:10.489Z,9.48
2022-09-10T00:40:21.747Z,9.15
2022-09-10T00:40:33.202Z,7.57
2022-09-10T00:40:44.602Z,7.07
2022-09-10T00:41:01.829Z,6.97
2022-09-10T00:41:13.341Z,6.68
2022-09-10T00:41:25.315Z,6.38
2022-09-10T00:41:37.657Z,7.00
2022-09-10T00:41:48.946Z,7.15
2022-09-10T00:42:00.174Z,7.85
2022-09-10T00:42:11.538Z,8.02
2022-09-10T00:42:22.831Z,7.40
2022-09-10T00:42:34.110Z,7.10
2022-09-10T00:42:45.409Z,7.25
2022-09-10T00:42:56.686Z,7.22
2022-09-10T00:43:15.685Z,7.65
2022-09-10T00:43:26.903Z,8.95
2022-09-10T00:43:47.084Z,7.43
2022-09-10T00:43:59.565Z,7.25
2022-09-10T00:44:32.639Z,9.23
2022-09-10T00:44:46.385Z,7.07
2022-09-10T00:44:59.251Z,4.78
2022-09-10T00:45:21.487Z,5.57
2022-09-10T00:45:33.137Z,8.77
2022-09-10T00:45:45.599Z,7.45
2022-09-10T00:45:56.875Z,9.13
2022-09-10T00:46:08.234Z,10.38
2022-09-10T00:46:28.500Z,9.27
2022-09-10T00:46:46.384Z,7.10
2022-09-10T00:46:57.592Z,7.82
2022-09-10T00:47:11.831Z,8.57
2022-09-10T00:47:31.591Z,7.25
2022-09-10T00:47:43.501Z,6.43
2022-09-10T00:47:56.291Z,5.80
2022-09-10T00:48:13.043Z,6.90
2022-09-10T00:48:31.084Z,9.20
2022-09-10T00:48:42.347Z,8.38
2022-09-10T00:48:55.474Z,8.13
2022-09-10T00:49:12.336Z,7.78
2022-09-10T00:49:30.376Z,6.28
2022-09-10T00:49:44.201Z,5.85
2022-09-10T00:50:04.820Z,5.95
2022-09-10T00:50:45.224Z,5.78
2022-09-10T00:50:57.785Z,4.03
2022-09-10T00:51:09.015Z,4.63
2022-09-10T00:51:20.256Z,5.57
2022-09-10T00:51:33.877Z,5.75
2022-09-10T00:51:45.909Z,4.57
2022-09-10T00:51:57.453Z,5.70
2022-09-10T00:52:08.998Z,5.88
2022-09-10T00:52:20.324Z,6.13
2022-09-10T00:52:34.446Z,5.07
2022-09-10T00:52:48.679Z,5.22
2022-09-10T00:53:04.128Z,5.10
2022-09-10T00:53:16.503Z,6.45
2022-09-10T00:53:28.731Z,6.78
2022-09-10T00:53:40.047Z,5.95
2022-09-10T00:53:51.430Z,5.65
2022-09-10T00:54:03.721Z,6.25
2022-09-10T00:54:17.467Z,5.97
2022-09-10T00:54:29.342Z,6.20
2022-09-10T00:54:42.552Z,4.97
2022-09-10T00:54:53.837Z,4.63
2022-09-10T00:55:05.634Z,5.30
2022-09-10T00:55:17.510Z,7.72
2022-09-10T00:55:28.946Z,6.78
2022-09-10T00:55:40.919Z,6.32
2022-09-10T00:55:54.680Z,5.63
2022-09-10T00:56:06.190Z,5.80
2022-09-10T00:56:17.534Z,5.45
2022-09-10T00:56:29.183Z,5.70
2022-09-10T00:56:40.476Z,6.70
2022-09-10T00:56:53.877Z,6.95
2022-09-10T00:57:09.730Z,8.10
2022-09-10T00:57:22.154Z,6.57
2022-09-10T00:57:33.600Z,7.18
2022-09-10T00:57:46.050Z,7.00
2022-09-10T00:57:59.699Z,5.40
2022-09-10T00:58:11.945Z,7.30
2022-09-10T00:58:23.905Z,7.80
2022-09-10T00:58:35.240Z,6.10
2022-09-10T00:58:47.354Z,6.65
2022-09-10T00:58:58.837Z,6.97
2022-09-10T00:59:10.830Z,7.82
2022-09-10T00:59:24.387Z,8.70
2022-09-10T00:59:35.724Z,10.75
2022-09-10T00:59:50.053Z,9.00
2022-09-10T01:00:07.052Z,6.88
2022-09-10T01:00:18.350Z,6.53
2022-09-10T01:00:29.691Z,7.50
2022-09-10T01:00:41.024Z,9.23
2022-09-10T01:00:54.949Z,10.35
2022-09-10T01:01:06.249Z,8.25
2022-09-10T01:01:18.258Z,6.40
2022-09-10T01:01:29.600Z,5.35
2022-09-10T01:01:40.913Z,5.78
2022-09-10T01:01:52.327Z,5.05
2022-09-10T01:02:03.908Z,6.15
2022-09-10T01:02:15.311Z,6.25
2022-09-10T01:02:26.577Z,5.57
2022-09-10T01:02:37.906Z,5.65
2022-09-10T01:02:49.148Z,6.50
2022-09-10T01:03:04.169Z,6.72
2022-09-10T01:03:16.741Z,8.10
2022-09-10T01:03:28.756Z,8.23
2022-09-10T01:03:40.652Z,6.90
2022-09-10T01:03:52.494Z,4.72
2022-09-10T01:04:04.162Z,5.55
2022-09-10T01:04:15.522Z,6.93
2022-09-10T01:04:27.236Z,7.63
2022-09-10T01:04:39.951Z,6.57
2022-09-10T01:04:51.390Z,6.90
2022-09-10T01:05:03.628Z,7.10
2022-09-10T01:05:15.974Z,6.93
2022-09-10T01:05:27.220Z,7.45
2022-09-10T01:05:39.444Z,6.45
2022-09-10T01:05:51.308Z,8.35
2022-09-10T01:06:02.771Z,8.88
2022-09-10T01:06:13.966Z,9.32
2022-09-10T01:06:26.675Z,5.45
2022-09-10T01:06:41.771Z,3.50
2022-09-10T01:06:53.176Z,6.25
2022-09-10T01:07:04.821Z,7.07
2022-09-10T01:07:16.337Z,6.32
2022-09-10T01:07:28.475Z,4.68
2022-09-10T01:07:39.691Z,5.82
2022-09-10T01:07:51.115Z,7.80
2022-09-10T01:08:02.464Z,7.20
2022-09-10T01:08:14.803Z,5.18
2022-09-10T01:08:26.225Z,5.05
2022-09-10T01:08:37.580Z,6.93
2022-09-10T01:08:48.939Z,6.85
2022-09-10T01:09:00.829Z,7.18
2022-09-10T01:09:12.953Z,6.60
2022-09-10T01:09:25.315Z,5.97
2022-09-10T01:09:38.121Z,6.88
2022-09-10T01:09:49.657Z,6.90
2022-09-10T01:10:04.070Z,6.93
2022-09-10T01:10:25.018Z,5.97
2022-09-10T01:10:43.231Z,9.50
2022-09-10T01:11:00.412Z,8.13
2022-09-10T01:11:11.640Z,6.90
2022-09-10T01:11:41.547Z,10.30
2022-09-10T01:12:11.527Z,5.93
2022-09-10T01:12:30.374Z,5.60
2022-09-10T01:12:47.193Z,5.88
2022-09-10T01:13:04.550Z,5.40
2022-09-10T01:13:15.784Z,8.00
2022-09-10T01:13:40.230Z,7.78
2022-09-10T01:14:00.588Z,5.47
2022-09-10T01:14:24.220Z,4.97
2022-09-10T01:14:41.489Z,5.22
2022-09-10T01:15:17.731Z,5.40
2022-09-10T01:15:29.036Z,6.13
2022-09-10T01:15:54.357Z,5.18
2022-09-10T01:16:32.142Z,4.25
2022-09-10T01:16:52.656Z,4.00
2022-09-10T01:17:21.932Z,5.22
2022-09-10T01:17:45.348Z,8.32
2022-09-10T01:18:15.454Z,4.07
2022-09-10T01:18:33.236Z,7.65
2022-09-10T01:18:47.579Z,6.03
2022-09-10T01:19:01.929Z,4.55
2022-09-10T01:19:16.248Z,5.03
2022-09-10T01:19:39.778Z,5.93
2022-09-10T01:20:09.522Z,6.55
2022-09-10T01:20:20.757Z,4.95
2022-09-10T01:20:38.093Z,4.45
2022-09-10T01:20:52.336Z,6.72
2022-09-10T01:21:12.366Z,7.28
2022-09-10T01:21:42.621Z,4.22
2022-09-10T01:21:53.934Z,5.05
2022-09-10T01:22:23.606Z,5.18
2022-09-10T01:22:37.610Z,5.07
2022-09-10T01:22:48.862Z,4.32
2022-09-10T01:23:11.073Z,4.90
2022-09-10T01:23:27.533Z,4.80
2022-09-10T01:23:47.968Z,5.15
2022-09-10T01:24:18.139Z,4.75
2022-09-10T01:24:35.530Z,8.43
2022-09-10T01:24:59.848Z,6.25
2022-09-10T01:25:20.581Z,6.03
2022-09-10T01:25:50.621Z,6.35
2022-09-10T01:26:07.816Z,3.40
2022-09-10T01:26:19.019Z,5.57
2022-09-10T01:26:49.082Z,5.80
2022-09-10T01:27:19.299Z,4.15
2022-09-10T01:27:44.002Z,5.85
2022-09-10T01:27:57.577Z,3.92
2022-09-10T01:28:12.163Z,4.40
2022-09-10T01:28:45.281Z,5.25
2022-09-10T01:29:08.886Z,5.78
2022-09-10T01:29:20.126Z,6.20
2022-09-10T01:29:39.602Z,4.75
2022-09-10T01:30:06.932Z,4.82
2022-09-10T01:30:23.065Z,6.63
2022-09-10T01:30:36.241Z,4.88
2022-09-10T01:30:50.578Z,5.75
2022-09-10T01:31:04.636Z,5.72
2022-09-10T01:31:21.949Z,6.80
2022-09-10T01:31:38.428Z,6.40
2022-09-10T01:31:51.719Z,3.53
2022-09-10T01:32:13.311Z,2.70
2022-09-10T01:32:30.720Z,2.47
2022-09-10T01:32:47.801Z,4.93
2022-09-10T01:32:59.094Z,5.50
2022-09-10T01:33:19.704Z,4.72
2022-09-10T01:33:34.567Z,4.05
2022-09-10T01:33:49.637Z,5.18
2022-09-10T01:34:07.835Z,4.85
2022-09-10T01:34:23.654Z,4.00
2022-09-10T01:34:56.343Z,3.70
2022-09-10T01:35:19.664Z,5.50
2022-09-10T01:35:39.421Z,3.63
2022-09-10T01:35:56.718Z,2.50
2022-09-10T01:36:11.034Z,4.65
2022-09-10T01:36:25.013Z,4.28
2022-09-10T01:36:38.737Z,5.15
2022-09-10T01:36:51.691Z,5.35
2022-09-10T01:37:05.066Z,3.47
2022-09-10T01:37:20.048Z,3.05
2022-09-10T01:37:31.839Z,3.78
2022-09-10T01:37:45.633Z,4.60
2022-09-10T01:38:00.034Z,5.18
2022-09-10T01:38:17.117Z,5.82
2022-09-10T01:38:35.755Z,4.82
2022-09-10T01:38:47.639Z,5.20
2022-09-10T01:38:59.583Z,6.53
2022-09-10T01:39:11.299Z,6.68
2022-09-10T01:39:24.581Z,4.47
2022-09-10T01:39:37.465Z,4.38
2022-09-10T01:39:50.174Z,5.70
2022-09-10T01:40:02.449Z,5.20
2022-09-10T01:40:14.223Z,5.00
2022-09-10T01:40:25.861Z,3.38
2022-09-10T01:40:37.685Z,5.05
2022-09-10T01:40:49.284Z,4.72
2022-09-10T01:41:03.133Z,5.82
2022-09-10T01:41:14.410Z,4.60
2022-09-10T01:41:27.333Z,3.63
2022-09-10T01:41:40.907Z,4.15
2022-09-10T01:41:53.029Z,4.55
2022-09-10T01:42:04.491Z,3.72
2022-09-10T01:42:15.765Z,3.85
2022-09-10T01:42:37.275Z,3.75
2022-09-10T01:42:48.688Z,4.30
2022-09-10T01:43:04.616Z,4.30
2022-09-10T01:43:15.851Z,3.30
2022-09-10T01:43:27.144Z,4.50
2022-09-10T01:43:38.545Z,4.78
2022-09-10T01:43:49.790Z,5.68
2022-09-10T01:44:08.163Z,3.90
2022-09-10T01:44:38.319Z,5.22
2022-09-10T01:44:50.628Z,5.80
2022-09-10T01:45:01.910Z,6.20
2022-09-10T01:45:14.507Z,3.65
2022-09-10T01:45:26.042Z,4.57
2022-09-10T01:46:16.067Z,4.20
2022-09-10T01:46:35.266Z,3.20
2022-09-10T01:47:04.410Z,3.72
2022-09-10T01:47:21.638Z,4.85
2022-09-10T01:47:44.128Z,3.97
2022-09-10T01:47:58.376Z,2.45
2022-09-10T01:48:35.010Z,2.05
2022-09-10T01:48:49.063Z,2.83
2022-09-10T01:49:05.514Z,2.00
2022-09-10T01:49:22.486Z,1.55
2022-09-10T01:49:56.519Z,2.80
2022-09-10T01:50:16.750Z,5.05
2022-09-10T01:50:50.773Z,3.97
2022-09-10T01:51:20.341Z,4.50
2022-09-10T01:51:31.568Z,7.80
2022-09-10T01:51:48.831Z,4.50
2022-09-10T01:52:00.047Z,3.20
2022-09-10T01:52:19.959Z,3.08
2022-09-10T01:52:38.801Z,3.33
2022-09-10T01:53:08.706Z,2.90
2022-09-10T01:53:37.935Z,4.95
2022-09-10T01:54:04.496Z,3.88
2022-09-10T01:54:18.759Z,3.53
2022-09-10T01:54:48.758Z,3.75
2022-09-10T01:55:14.816Z,4.82
2022-09-10T01:55:44.765Z,9.32
2022-09-10T01:55:55.994Z,1.67
2022-09-10T01:56:17.779Z,1.50
2022-09-10T01:56:49.024Z,1.67
2022-09-10T01:57:06.197Z,2.80
2022-09-10T01:57:17.419Z,4.07
2022-09-10T01:57:42.511Z,3.97
2022-09-10T01:57:59.550Z,2.10
2022-09-10T01:58:29.229Z,3.08
2022-09-10T01:58:41.795Z,4.00
2022-09-10T01:58:55.767Z,2.75
2022-09-10T01:59:30.146Z,2.38
2022-09-10T01:59:56.412Z,2.58
2022-09-10T02:00:09.404Z,5.47
2022-09-10T02:00:20.757Z,3.75
2022-09-10T02:00:33.461Z,5.43
2022-09-10T02:00:47.010Z,4.13
2022-09-10T02:01:17.185Z,5.00
2022-09-10T02:01:28.451Z,2.40
2022-09-10T02:01:45.794Z,2.80
2022-09-10T02:02:02.543Z,3.22
2022-09-10T02:02:16.463Z,3.92
2022-09-10T02:02:38.093Z,3.55
2022-09-10T02:02:52.170Z,3.78
2022-09-10T02:03:09.881Z,3.63
2022-09-10T02:03:23.785Z,3.47
2022-09-10T02:03:35.859Z,2.25
2022-09-10T02:03:48.366Z,1.98
2022-09-10T02:04:01.496Z,2.00
2022-09-10T02:04:14.983Z,2.53
2022-09-10T02:04:27.269Z,3.40
2022-09-10T02:04:39.729Z,3.10
2022-09-10T02:04:51.468Z,2.33
2022-09-10T02:05:03.696Z,3.58
2022-09-10T02:05:16.477Z,3.42
2022-09-10T02:05:30.343Z,2.95
2022-09-10T02:05:44.773Z,3.28
2022-09-10T02:05:56.310Z,2.88
2022-09-10T02:06:08.962Z,2.25
2022-09-10T02:06:21.611Z,2.22
2022-09-10T02:06:34.201Z,3.50
2022-09-10T02:06:48.916Z,3.67
2022-09-10T02:07:00.221Z,3.33
2022-09-10T02:07:12.299Z,5.22
2022-09-10T02:07:24.690Z,5.47
2022-09-10T02:07:36.594Z,4.78
2022-09-10T02:07:48.815Z,3.92
2022-09-10T02:08:01.995Z,3.63
2022-09-10T02:08:16.003Z,4.40
2022-09-10T02:08:32.949Z,3.95
2022-09-10T02:08:45.184Z,3.22
2022-09-10T02:08:58.216Z,2.58
2022-09-10T02:09:09.884Z,2.45
2022-09-10T02:09:21.327Z,3.45
2022-09-10T02:09:32.915Z,3.38
2022-09-10T02:09:44.215Z,3.10
2022-09-10T02:09:55.595Z,3.03
2022-09-10T02:10:09.514Z,2.85
2022-09-10T02:10:20.820Z,5.13
2022-09-10T02:10:32.241Z,4.75
2022-09-10T02:10:49.503Z,4.80
2022-09-10T02:11:02.315Z,7.25
2022-09-10T02:11:15.632Z,8.10
2022-09-10T02:11:26.986Z,11.02
2022-09-10T02:11:46.179Z,8.73
2022-09-10T02:11:57.421Z,8.93
2022-09-10T02:12:10.248Z,8.45
2022-09-10T02:12:22.167Z,3.55
2022-09-10T02:12:33.762Z,3.30
2022-09-10T02:12:45.496Z,3.40
2022-09-10T02:12:56.775Z,3.05
2022-09-10T02:13:08.004Z,3.75
2022-09-10T02:13:19.460Z,3.25
2022-09-10T02:13:30.851Z,3.60
2022-09-10T02:13:42.169Z,2.78
2022-09-10T02:13:53.547Z,2.70
2022-09-10T02:14:05.184Z,2.72
2022-09-10T02:14:16.976Z,2.53
2022-09-10T02:14:28.400Z,3.03
2022-09-10T02:14:39.674Z,3.03
2022-09-10T02:14:51.999Z,2.65
2022-09-10T02:15:04.410Z,1.63
2022-09-10T02:15:16.111Z,2.13
2022-09-10T02:15:29.122Z,2.53
2022-09-10T02:15:40.664Z,2.38
2022-09-10T02:15:52.333Z,2.38
2022-09-10T02:16:05.596Z,3.95
2022-09-10T02:16:38.072Z,4.22
2022-09-10T02:16:54.150Z,3.70
2022-09-10T02:17:05.469Z,3.08
2022-09-10T02:17:17.079Z,3.67
2022-09-10T02:17:30.409Z,3.00
2022-09-10T02:17:42.803Z,3.15
2022-09-10T02:17:54.728Z,3.03
2022-09-10T02:18:07.291Z,3.42
2022-09-10T02:18:21.921Z,2.38
2022-09-10T02:18:33.316Z,2.13
2022-09-10T02:18:44.705Z,3.03
2022-09-10T02:18:56.159Z,4.15
2022-09-10T02:19:07.508Z,4.20
2022-09-10T02:19:18.990Z,5.70
2022-09-10T02:19:30.225Z,5.80
2022-09-10T02:19:43.365Z,4.28
2022-09-10T02:19:54.903Z,2.97
2022-09-10T02:20:08.296Z,4.88
2022-09-10T02:20:20.688Z,4.30
2022-09-10T02:20:34.286Z,2.22
2022-09-10T02:20:45.990Z,3.88
2022-09-10T02:20:58.135Z,3.47
2022-09-10T02:21:11.608Z,4.07
2022-09-10T02:21:23.012Z,2.97
2022-09-10T02:21:34.314Z,3.13
2022-09-10T02:21:45.745Z,1.98
2022-09-10T02:21:58.839Z,3.10
2022-09-10T02:22:10.187Z,3.08
2022-09-10T02:22:24.541Z,2.42
2022-09-10T02:22:36.812Z,2.42
2022-09-10T02:22:49.629Z,2.47
2022-09-10T02:23:02.199Z,2.30
2022-09-10T02:23:14.480Z,2.10
2022-09-10T02:23:31.514Z,2.28
2022-09-10T02:23:43.983Z,3.58
2022-09-10T02:23:57.390Z,3.47
2022-09-10T02:24:10.620Z,2.92
2022-09-10T02:24:22.040Z,2.38
2022-09-10T02:24:33.343Z,2.50
2022-09-10T02:24:44.780Z,2.58
2022-09-10T02:24:56.017Z,2.42
2022-09-10T02:25:07.664Z,2.25
2022-09-10T02:25:18.892Z,3.35
2022-09-10T02:25:32.428Z,3.92
2022-09-10T02:25:43.894Z,3.35
2022-09-10T02:25:55.129Z,2.10
2022-09-10T02:26:06.601Z,2.45
2022-09-10T02:26:17.838Z,2.47
2022-09-10T02:26:29.068Z,2.47
2022-09-10T02:26:42.378Z,3.15
2022-09-10T02:26:53.663Z,3.00
2022-09-10T02:27:05.065Z,2.75
2022-09-10T02:27:16.462Z,2.25
2022-09-10T02:27:27.867Z,2.17
2022-09-10T02:27:39.167Z,3.70
2022-09-10T02:27:50.965Z,4.07
2022-09-10T02:28:02.376Z,3.25
2022-09-10T02:28:13.644Z,3.13
2022-09-10T02:28:25.231Z,3.28
2022-09-10T02:28:37.016Z,2.70
2022-09-10T02:28:48.429Z,4.40
2022-09-10T02:29:02.764Z,4.40
2022-09-10T02:29:15.240Z,2.22
2022-09-10T02:29:26.460Z,2.75
2022-09-10T02:29:37.988Z,3.20
2022-09-10T02:29:49.732Z,3.60
2022-09-10T02:30:00.987Z,2.22
2022-09-10T02:30:12.549Z,2.30
2022-09-10T02:30:23.757Z,2.25
2022-09-10T02:30:35.018Z,3.00
2022-09-10T02:30:46.295Z,4.07
2022-09-10T02:30:58.528Z,3.95
2022-09-10T02:31:10.024Z,2.85
2022-09-10T02:31:21.362Z,2.00
2022-09-10T02:31:32.904Z,1.50
2022-09-10T02:31:44.258Z,2.90
2022-09-10T02:31:55.557Z,3.67
2022-09-10T02:32:07.398Z,3.42
2022-09-10T02:32:18.657Z,2.05
2022-09-10T02:32:29.970Z,2.47
2022-09-10T02:32:41.271Z,3.00
2022-09-10T02:32:52.504Z,3.53
2022-09-10T02:33:03.793Z,2.88
2022-09-10T02:33:15.057Z,2.45
2022-09-10T02:33:26.334Z,2.28
2022-09-10T02:33:37.546Z,2.25
2022-09-10T02:33:48.839Z,3.53
2022-09-10T02:34:00.087Z,3.30
2022-09-10T02:34:11.345Z,2.25
2022-09-10T02:34:22.591Z,1.73
2022-09-10T02:34:34.173Z,2.13
2022-09-10T02:34:45.453Z,2.10
2022-09-10T02:34:56.678Z,1.67
2022-09-10T02:35:08.209Z,2.22
2022-09-10T02:35:19.437Z,1.88
2022-09-10T02:35:35.610Z,2.17
2022-09-10T02:35:46.862Z,3.00
2022-09-10T02:35:58.453Z,4.88
2022-09-10T02:36:09.865Z,3.88
2022-09-10T02:36:21.305Z,6.28
2022-09-10T02:36:32.532Z,4.00
2022-09-10T02:36:43.829Z,2.83
2022-09-10T02:36:55.108Z,2.78
2022-09-10T02:37:06.440Z,3.58
2022-09-10T02:37:18.039Z,3.55
2022-09-10T02:37:29.289Z,3.03
2022-09-10T02:37:40.563Z,2.35
2022-09-10T02:37:51.861Z,2.03
2022-09-10T02:38:03.229Z,3.30
2022-09-10T02:38:17.602Z,3.97
2022-09-10T02:38:28.852Z,2.78
2022-09-10T02:38:40.223Z,4.90
2022-09-10T02:38:55.006Z,4.43
2022-09-10T02:39:06.470Z,2.83
2022-09-10T02:39:17.713Z,2.42
2022-09-10T02:39:29.551Z,2.20
2022-09-10T02:39:41.115Z,2.60
2022-09-10T02:39:52.517Z,2.40
2022-09-10T02:40:04.124Z,2.30
2022-09-10T02:40:15.466Z,1.92
2022-09-10T02:40:26.741Z,4.57
2022-09-10T02:40:37.971Z,4.75
2022-09-10T02:40:51.493Z,4.78
2022-09-10T02:41:02.796Z,2.42
2022-09-10T02:41:14.091Z,3.22
2022-09-10T02:41:26.416Z,3.25
2022-09-10T02:41:37.652Z,3.10
2022-09-10T02:41:48.895Z,3.58
2022-09-10T02:42:00.122Z,3.85
2022-09-10T02:42:11.391Z,3.90
2022-09-10T02:42:22.672Z,3.88
2022-09-10T02:42:33.912Z,3.55
2022-09-10T02:42:45.919Z,3.55
2022-09-10T02:42:57.299Z,2.20
2022-09-10T02:43:08.688Z,1.95
2022-09-10T02:43:19.931Z,2.80
2022-09-10T02:43:31.151Z,7.97
2022-09-10T02:43:42.360Z,7.95
2022-09-10T02:43:53.900Z,8.45
2022-09-10T02:44:05.135Z,3.00
2022-09-10T02:44:16.464Z,3.75
2022-09-10T02:44:28.170Z,2.30
2022-09-10T02:44:39.522Z,2.65
2022-09-10T02:44:50.771Z,2.22
2022-09-10T02:45:02.034Z,2.40
2022-09-10T02:45:13.720Z,3.20
2022-09-10T02:45:25.249Z,3.38
2022-09-10T02:45:38.820Z,2.90
2022-09-10T02:45:50.050Z,2.60
2022-09-10T02:46:01.399Z,3.50
2022-09-10T02:46:12.711Z,3.47
2022-09-10T02:46:24.011Z,2.58
2022-09-10T02:46:35.294Z,2.00
2022-09-10T02:46:46.542Z,2.38
2022-09-10T02:46:57.764Z,3.10
2022-09-10T02:47:08.983Z,7.18
2022-09-10T02:47:20.234Z,6.72
2022-09-10T02:47:31.495Z,3.80
2022-09-10T02:47:42.843Z,2.38
2022-09-10T02:47:54.082Z,3.42
2022-09-10T02:48:06.871Z,3.85
2022-09-10T02:48:18.070Z,3.25
2022-09-10T02:48:29.268Z,3.67
2022-09-10T02:48:40.514Z,3.70
2022-09-10T02:48:51.773Z,4.05
2022-09-10T02:49:02.995Z,2.80
2022-09-10T02:49:15.452Z,2.20
2022-09-10T02:49:26.699Z,1.80
2022-09-10T02:49:38.546Z,5.43
2022-09-10T02:49:49.823Z,5.30
2022-09-10T02:50:01.067Z,5.25
2022-09-10T02:50:12.311Z,4.80
2022-09-10T02:50:23.520Z,5.75
2022-09-10T02:50:35.039Z,3.75
2022-09-10T02:50:46.310Z,2.50
2022-09-10T02:50:57.680Z,3.03
2022-09-10T02:51:08.943Z,3.45
2022-09-10T02:51:20.155Z,4.28
2022-09-10T02:51:31.447Z,3.80
2022-09-10T02:51:42.743Z,2.53
2022-09-10T02:51:53.972Z,2.17
2022-09-10T02:52:05.256Z,2.75
2022-09-10T02:52:16.475Z,2.83
2022-09-10T02:52:29.890Z,2.10
2022-09-10T02:52:41.347Z,2.30
2022-09-10T02:52:52.593Z,3.72
2022-09-10T02:53:03.955Z,4.13
2022-09-10T02:53:15.149Z,3.40
2022-09-10T02:53:26.356Z,2.92
2022-09-10T02:53:37.865Z,2.10
2022-09-10T02:53:49.182Z,2.38
2022-09-10T02:54:01.663Z,1.80
2022-09-10T02:54:12.985Z,2.13
2022-09-10T02:54:24.203Z,3.50
2022-09-10T02:54:35.421Z,3.35
2022-09-10T02:54:46.687Z,3.85
2022-09-10T02:54:57.979Z,2.60
2022-09-10T02:55:09.409Z,2.20
2022-09-10T02:55:20.679Z,3.22
2022-09-10T02:55:31.931Z,3.90
2022-09-10T02:55:45.910Z,4.00
2022-09-10T02:55:57.635Z,2.25
2022-09-10T02:56:08.907Z,2.00
2022-09-10T02:56:20.195Z,3.88
2022-09-10T02:56:31.449Z,5.30
2022-09-10T02:56:42.720Z,5.72
2022-09-10T02:56:54.298Z,4.72
2022-09-10T02:57:05.568Z,3.17
2022-09-10T02:57:16.838Z,3.28
2022-09-10T02:57:28.116Z,3.25
2022-09-10T02:57:39.804Z,2.53
2022-09-10T02:57:51.075Z,2.28
2022-09-10T02:58:02.303Z,4.43
2022-09-10T02:58:13.855Z,4.32
2022-09-10T02:58:25.104Z,4.10
2022-09-10T02:58:36.416Z,2.90
2022-09-10T02:58:47.762Z,2.47
2022-09-10T02:58:59.046Z,3.58
2022-09-10T02:59:10.314Z,3.42
2022-09-10T02:59:21.585Z,3.42
2022-09-10T02:59:32.995Z,1.98
2022-09-10T02:59:44.201Z,4.28
2022-09-10T02:59:55.506Z,6.28
2022-09-10T03:00:08.579Z,6.65
2022-09-10T03:00:20.313Z,2.47